Kingsville, Ohio
Current Conditions -  °F | °C
As of 3:53 AM on Thursday 27 Nov 2014 (Local Time) from KHZY Reporting Station
Overcast Overcast  
Wind Chill: 32°   Ceiling: 5000
Heat Index: 32°   Visibility: 10mi
Dew Point: 29°   Wind: 3mph
Humidity: 88%   Direction: 20°NNE
Pressure: 30.01"   Gusts: NA
Location:  41.89°N, 80.68°W
Report Text: KHZY 270853Z AUTO 02003KT 10SM FEW005 BKN050 OVC065 00/M02 A3001 RMK AO2 SNE22 SLP169 P0000 60000 I3001 T00001017 58001
Loading
Personal Weather Stations






























Interactive Weather Map New forecast layout! Learn more

10-Day Weather Forecast

Advertisements
Track Severe Weather on mobile